sensor_id;sensor_type;location;lat;lon;timestamp;P1;durP1;ratioP1;P2;durP2;ratioP2
3667;SDS011;24099;47.102;15.440;2023-11-19T00:00:08;3.03;;;1.90;;
3667;SDS011;24099;47.102;15.440;2023-11-19T00:02:37;3.72;;;1.88;;
3667;SDS011;24099;47.102;15.440;2023-11-19T00:05:06;3.75;;;2.33;;
3667;SDS011;24099;47.102;15.440;2023-11-19T00:07:40;2.72;;;2.00;;
3667;SDS011;24099;47.102;15.440;2023-11-19T00:10:19;3.20;;;2.03;;
3667;SDS011;24099;47.102;15.440;2023-11-19T00:12:47;3.92;;;2.25;;
3667;SDS011;24099;47.102;15.440;2023-11-19T00:15:18;3.58;;;1.75;;
3667;SDS011;24099;47.102;15.440;2023-11-19T00:17:47;2.95;;;1.90;;
3667;SDS011;24099;47.102;15.440;2023-11-19T00:20:15;4.10;;;1.98;;
3667;SDS011;24099;47.102;15.440;2023-11-19T00:22:44;3.17;;;1.88;;
3667;SDS011;24099;47.102;15.440;2023-11-19T00:25:13;1.77;;;1.63;;
3667;SDS011;24099;47.102;15.440;2023-11-19T00:27:45;3.17;;;2.03;;
3667;SDS011;24099;47.102;15.440;2023-11-19T00:30:13;5.53;;;1.67;;
3667;SDS011;24099;47.102;15.440;2023-11-19T00:32:42;3.08;;;2.00;;
3667;SDS011;24099;47.102;15.440;2023-11-19T00:35:10;2.88;;;1.88;;
3667;SDS011;24099;47.102;15.440;2023-11-19T00:37:41;3.53;;;1.73;;
3667;SDS011;24099;47.102;15.440;2023-11-19T00:40:11;3.10;;;1.98;;
3667;SDS011;24099;47.102;15.440;2023-11-19T00:42:42;2.85;;;1.98;;
3667;SDS011;24099;47.102;15.440;2023-11-19T00:45:10;4.43;;;2.80;;
3667;SDS011;24099;47.102;15.440;2023-11-19T00:47:38;2.95;;;2.20;;
3667;SDS011;24099;47.102;15.440;2023-11-19T00:50:06;3.88;;;2.30;;
3667;SDS011;24099;47.102;15.440;2023-11-19T00:52:36;4.00;;;2.55;;
3667;SDS011;24099;47.102;15.440;2023-11-19T00:55:04;5.57;;;2.88;;
3667;SDS011;24099;47.102;15.440;2023-11-19T00:57:32;6.20;;;3.25;;
3667;SDS011;24099;47.102;15.440;2023-11-19T01:00:02;3.75;;;2.70;;
3667;SDS011;24099;47.102;15.440;2023-11-19T01:02:37;6.95;;;3.10;;
3667;SDS011;24099;47.102;15.440;2023-11-19T01:05:08;5.32;;;3.13;;
3667;SDS011;24099;47.102;15.440;2023-11-19T01:07:50;4.65;;;3.17;;
3667;SDS011;24099;47.102;15.440;2023-11-19T01:10:22;6.90;;;3.40;;
3667;SDS011;24099;47.102;15.440;2023-11-19T01:12:51;5.00;;;2.72;;
3667;SDS011;24099;47.102;15.440;2023-11-19T01:15:23;4.78;;;2.58;;
3667;SDS011;24099;47.102;15.440;2023-11-19T01:17:57;4.22;;;2.65;;
3667;SDS011;24099;47.102;15.440;2023-11-19T01:20:27;3.63;;;2.23;;
3667;SDS011;24099;47.102;15.440;2023-11-19T01:22:55;7.40;;;2.78;;
3667;SDS011;24099;47.102;15.440;2023-11-19T01:25:29;6.53;;;2.80;;
3667;SDS011;24099;47.102;15.440;2023-11-19T01:27:57;4.97;;;2.95;;
3667;SDS011;24099;47.102;15.440;2023-11-19T01:30:29;4.25;;;2.83;;
3667;SDS011;24099;47.102;15.440;2023-11-19T01:33:00;6.22;;;2.97;;
3667;SDS011;24099;47.102;15.440;2023-11-19T01:35:27;4.45;;;2.45;;
3667;SDS011;24099;47.102;15.440;2023-11-19T01:37:55;4.10;;;2.80;;
3667;SDS011;24099;47.102;15.440;2023-11-19T01:40:23;4.65;;;2.67;;
3667;SDS011;24099;47.102;15.440;2023-11-19T01:42:50;5.20;;;2.95;;
3667;SDS011;24099;47.102;15.440;2023-11-19T01:45:22;4.32;;;2.58;;
3667;SDS011;24099;47.102;15.440;2023-11-19T01:47:56;5.63;;;2.72;;
3667;SDS011;24099;47.102;15.440;2023-11-19T01:50:30;3.75;;;2.50;;
3667;SDS011;24099;47.102;15.440;2023-11-19T01:52:59;3.22;;;2.25;;
3667;SDS011;24099;47.102;15.440;2023-11-19T01:55:31;4.05;;;2.55;;
3667;SDS011;24099;47.102;15.440;2023-11-19T01:58:03;9.60;;;2.85;;
3667;SDS011;24099;47.102;15.440;2023-11-19T02:00:32;5.03;;;2.35;;
3667;SDS011;24099;47.102;15.440;2023-11-19T02:03:04;4.85;;;2.80;;
3667;SDS011;24099;47.102;15.440;2023-11-19T02:05:36;5.07;;;3.08;;
3667;SDS011;24099;47.102;15.440;2023-11-19T02:08:14;3.83;;;2.60;;
3667;SDS011;24099;47.102;15.440;2023-11-19T02:10:42;7.38;;;2.35;;
3667;SDS011;24099;47.102;15.440;2023-11-19T02:13:10;4.55;;;2.78;;
3667;SDS011;24099;47.102;15.440;2023-11-19T02:15:40;3.58;;;2.28;;
3667;SDS011;24099;47.102;15.440;2023-11-19T02:20:55;3.45;;;2.45;;
3667;SDS011;24099;47.102;15.440;2023-11-19T02:23:25;4.35;;;2.58;;
3667;SDS011;24099;47.102;15.440;2023-11-19T02:25:57;4.65;;;2.67;;
3667;SDS011;24099;47.102;15.440;2023-11-19T02:31:04;5.97;;;2.60;;
3667;SDS011;24099;47.102;15.440;2023-11-19T02:33:34;4.28;;;2.70;;
3667;SDS011;24099;47.102;15.440;2023-11-19T02:36:03;4.88;;;3.00;;
3667;SDS011;24099;47.102;15.440;2023-11-19T02:38:32;3.72;;;2.45;;
3667;SDS011;24099;47.102;15.440;2023-11-19T02:41:02;5.30;;;2.78;;
3667;SDS011;24099;47.102;15.440;2023-11-19T02:43:33;5.32;;;2.38;;
3667;SDS011;24099;47.102;15.440;2023-11-19T02:46:02;6.78;;;3.00;;
3667;SDS011;24099;47.102;15.440;2023-11-19T02:48:32;4.18;;;2.95;;
3667;SDS011;24099;47.102;15.440;2023-11-19T02:51:00;4.40;;;3.17;;
3667;SDS011;24099;47.102;15.440;2023-11-19T02:53:35;4.25;;;2.70;;
3667;SDS011;24099;47.102;15.440;2023-11-19T02:56:07;4.35;;;2.75;;
3667;SDS011;24099;47.102;15.440;2023-11-19T02:58:46;3.53;;;2.47;;
3667;SDS011;24099;47.102;15.440;2023-11-19T03:01:20;7.40;;;3.28;;
3667;SDS011;24099;47.102;15.440;2023-11-19T03:03:54;5.13;;;2.60;;
3667;SDS011;24099;47.102;15.440;2023-11-19T03:06:23;5.00;;;3.08;;
3667;SDS011;24099;47.102;15.440;2023-11-19T03:08:52;4.88;;;2.80;;
3667;SDS011;24099;47.102;15.440;2023-11-19T03:11:20;5.65;;;3.25;;
3667;SDS011;24099;47.102;15.440;2023-11-19T03:13:50;4.93;;;2.80;;
3667;SDS011;24099;47.102;15.440;2023-11-19T03:16:17;4.47;;;2.72;;
3667;SDS011;24099;47.102;15.440;2023-11-19T03:18:45;6.47;;;3.15;;
3667;SDS011;24099;47.102;15.440;2023-11-19T03:21:13;4.70;;;3.10;;
3667;SDS011;24099;47.102;15.440;2023-11-19T03:23:40;6.32;;;3.30;;
3667;SDS011;24099;47.102;15.440;2023-11-19T03:26:10;3.85;;;2.70;;
3667;SDS011;24099;47.102;15.440;2023-11-19T03:28:38;4.93;;;3.00;;
3667;SDS011;24099;47.102;15.440;2023-11-19T03:31:07;5.60;;;2.38;;
3667;SDS011;24099;47.102;15.440;2023-11-19T03:33:35;3.20;;;2.35;;
3667;SDS011;24099;47.102;15.440;2023-11-19T03:36:02;4.88;;;2.65;;
3667;SDS011;24099;47.102;15.440;2023-11-19T03:38:31;3.85;;;2.63;;
3667;SDS011;24099;47.102;15.440;2023-11-19T03:40:59;4.30;;;2.53;;
3667;SDS011;24099;47.102;15.440;2023-11-19T03:43:27;5.07;;;2.65;;
3667;SDS011;24099;47.102;15.440;2023-11-19T03:45:58;4.45;;;2.83;;
3667;SDS011;24099;47.102;15.440;2023-11-19T03:48:27;3.83;;;2.65;;
3667;SDS011;24099;47.102;15.440;2023-11-19T03:50:55;6.22;;;2.75;;
3667;SDS011;24099;47.102;15.440;2023-11-19T03:53:23;4.45;;;2.22;;
3667;SDS011;24099;47.102;15.440;2023-11-19T03:55:50;3.30;;;2.55;;
3667;SDS011;24099;47.102;15.440;2023-11-19T03:58:18;4.97;;;2.53;;
3667;SDS011;24099;47.102;15.440;2023-11-19T04:00:45;4.45;;;2.40;;
3667;SDS011;24099;47.102;15.440;2023-11-19T04:03:13;6.15;;;2.72;;
3667;SDS011;24099;47.102;15.440;2023-11-19T04:05:42;5.95;;;3.28;;
3667;SDS011;24099;47.102;15.440;2023-11-19T04:08:09;5.40;;;2.85;;
3667;SDS011;24099;47.102;15.440;2023-11-19T04:10:37;5.55;;;2.80;;
3667;SDS011;24099;47.102;15.440;2023-11-19T04:13:05;4.15;;;2.15;;
3667;SDS011;24099;47.102;15.440;2023-11-19T04:15:33;4.72;;;2.70;;
3667;SDS011;24099;47.102;15.440;2023-11-19T04:18:01;5.38;;;2.70;;
3667;SDS011;24099;47.102;15.440;2023-11-19T04:20:29;4.43;;;2.67;;
3667;SDS011;24099;47.102;15.440;2023-11-19T04:22:58;7.35;;;2.67;;
3667;SDS011;24099;47.102;15.440;2023-11-19T04:25:26;9.88;;;2.88;;
3667;SDS011;24099;47.102;15.440;2023-11-19T04:27:54;4.55;;;2.70;;
3667;SDS011;24099;47.102;15.440;2023-11-19T04:30:22;4.82;;;2.85;;
3667;SDS011;24099;47.102;15.440;2023-11-19T04:32:50;4.95;;;3.10;;
3667;SDS011;24099;47.102;15.440;2023-11-19T04:35:18;6.40;;;3.22;;
3667;SDS011;24099;47.102;15.440;2023-11-19T04:37:46;3.92;;;2.47;;
3667;SDS011;24099;47.102;15.440;2023-11-19T04:40:16;8.25;;;2.78;;
3667;SDS011;24099;47.102;15.440;2023-11-19T04:42:46;4.78;;;2.95;;
3667;SDS011;24099;47.102;15.440;2023-11-19T04:45:13;3.95;;;2.55;;
3667;SDS011;24099;47.102;15.440;2023-11-19T04:47:41;3.90;;;2.65;;
3667;SDS011;24099;47.102;15.440;2023-11-19T04:50:09;9.05;;;2.55;;
3667;SDS011;24099;47.102;15.440;2023-11-19T04:52:37;6.75;;;2.80;;
3667;SDS011;24099;47.102;15.440;2023-11-19T04:55:15;5.47;;;2.75;;
3667;SDS011;24099;47.102;15.440;2023-11-19T04:57:43;3.35;;;2.60;;
3667;SDS011;24099;47.102;15.440;2023-11-19T05:00:11;3.63;;;2.38;;
3667;SDS011;24099;47.102;15.440;2023-11-19T05:02:40;3.25;;;2.30;;
3667;SDS011;24099;47.102;15.440;2023-11-19T05:05:07;4.00;;;2.47;;
3667;SDS011;24099;47.102;15.440;2023-11-19T05:07:40;5.05;;;2.80;;
3667;SDS011;24099;47.102;15.440;2023-11-19T05:10:08;4.00;;;2.60;;
3667;SDS011;24099;47.102;15.440;2023-11-19T05:12:39;4.45;;;2.53;;
3667;SDS011;24099;47.102;15.440;2023-11-19T05:15:07;3.05;;;2.03;;
3667;SDS011;24099;47.102;15.440;2023-11-19T05:17:37;3.45;;;2.30;;
3667;SDS011;24099;47.102;15.440;2023-11-19T05:20:14;4.57;;;2.22;;
3667;SDS011;24099;47.102;15.440;2023-11-19T05:22:52;4.00;;;2.28;;
3667;SDS011;24099;47.102;15.440;2023-11-19T05:25:27;3.38;;;2.10;;
3667;SDS011;24099;47.102;15.440;2023-11-19T05:27:56;4.20;;;2.55;;
3667;SDS011;24099;47.102;15.440;2023-11-19T05:30:33;3.47;;;2.05;;
3667;SDS011;24099;47.102;15.440;2023-11-19T05:33:01;3.72;;;2.40;;
3667;SDS011;24099;47.102;15.440;2023-11-19T05:35:34;4.63;;;2.75;;
3667;SDS011;24099;47.102;15.440;2023-11-19T05:38:02;5.25;;;2.33;;
3667;SDS011;24099;47.102;15.440;2023-11-19T05:40:34;5.40;;;2.50;;
3667;SDS011;24099;47.102;15.440;2023-11-19T05:43:22;5.00;;;2.45;;
3667;SDS011;24099;47.102;15.440;2023-11-19T05:45:50;8.15;;;2.35;;
3667;SDS011;24099;47.102;15.440;2023-11-19T05:48:18;4.43;;;2.45;;
3667;SDS011;24099;47.102;15.440;2023-11-19T05:50:53;5.38;;;3.17;;
3667;SDS011;24099;47.102;15.440;2023-11-19T05:53:21;6.20;;;2.90;;
3667;SDS011;24099;47.102;15.440;2023-11-19T05:55:49;4.93;;;2.83;;
3667;SDS011;24099;47.102;15.440;2023-11-19T05:58:23;9.02;;;4.57;;
3667;SDS011;24099;47.102;15.440;2023-11-19T06:01:06;4.80;;;3.07;;
3667;SDS011;24099;47.102;15.440;2023-11-19T06:03:34;6.55;;;2.92;;
3667;SDS011;24099;47.102;15.440;2023-11-19T06:06:02;3.70;;;2.20;;
3667;SDS011;24099;47.102;15.440;2023-11-19T06:08:37;6.78;;;2.85;;
3667;SDS011;24099;47.102;15.440;2023-11-19T06:11:06;17.10;;;6.20;;
3667;SDS011;24099;47.102;15.440;2023-11-19T06:13:46;26.13;;;7.57;;
3667;SDS011;24099;47.102;15.440;2023-11-19T06:16:16;10.00;;;2.97;;
3667;SDS011;24099;47.102;15.440;2023-11-19T06:18:44;7.47;;;3.15;;
3667;SDS011;24099;47.102;15.440;2023-11-19T06:21:13;5.18;;;3.05;;
3667;SDS011;24099;47.102;15.440;2023-11-19T06:23:41;5.47;;;2.65;;
3667;SDS011;24099;47.102;15.440;2023-11-19T06:26:09;4.53;;;2.55;;
3667;SDS011;24099;47.102;15.440;2023-11-19T06:28:38;4.35;;;2.80;;
3667;SDS011;24099;47.102;15.440;2023-11-19T06:31:07;5.82;;;2.78;;
3667;SDS011;24099;47.102;15.440;2023-11-19T06:33:35;4.75;;;2.53;;
3667;SDS011;24099;47.102;15.440;2023-11-19T06:36:04;4.20;;;2.55;;
3667;SDS011;24099;47.102;15.440;2023-11-19T06:38:33;5.95;;;3.03;;
3667;SDS011;24099;47.102;15.440;2023-11-19T06:41:01;6.93;;;3.17;;
3667;SDS011;24099;47.102;15.440;2023-11-19T06:43:32;5.28;;;3.15;;
3667;SDS011;24099;47.102;15.440;2023-11-19T06:45:59;6.25;;;2.83;;
3667;SDS011;24099;47.102;15.440;2023-11-19T06:48:32;5.32;;;3.05;;
3667;SDS011;24099;47.102;15.440;2023-11-19T06:51:00;9.65;;;4.20;;
3667;SDS011;24099;47.102;15.440;2023-11-19T06:53:31;19.27;;;6.78;;
3667;SDS011;24099;47.102;15.440;2023-11-19T06:56:00;8.63;;;4.30;;
3667;SDS011;24099;47.102;15.440;2023-11-19T06:58:28;4.97;;;2.85;;
3667;SDS011;24099;47.102;15.440;2023-11-19T07:00:56;4.00;;;2.58;;
3667;SDS011;24099;47.102;15.440;2023-11-19T07:03:24;5.93;;;2.85;;
3667;SDS011;24099;47.102;15.440;2023-11-19T07:05:53;4.25;;;2.83;;
3667;SDS011;24099;47.102;15.440;2023-11-19T07:08:21;3.90;;;2.72;;
3667;SDS011;24099;47.102;15.440;2023-11-19T07:10:49;5.25;;;3.08;;
3667;SDS011;24099;47.102;15.440;2023-11-19T07:13:17;4.78;;;2.90;;
3667;SDS011;24099;47.102;15.440;2023-11-19T07:15:52;3.30;;;2.42;;
3667;SDS011;24099;47.102;15.440;2023-11-19T07:18:21;3.90;;;2.63;;
3667;SDS011;24099;47.102;15.440;2023-11-19T07:20:49;4.20;;;2.70;;
3667;SDS011;24099;47.102;15.440;2023-11-19T07:23:57;4.93;;;2.88;;
3667;SDS011;24099;47.102;15.440;2023-11-19T07:26:29;5.85;;;3.03;;
3667;SDS011;24099;47.102;15.440;2023-11-19T07:29:01;4.15;;;2.90;;
3667;SDS011;24099;47.102;15.440;2023-11-19T07:31:33;4.65;;;2.75;;
3667;SDS011;24099;47.102;15.440;2023-11-19T07:34:01;7.90;;;2.78;;
3667;SDS011;24099;47.102;15.440;2023-11-19T07:36:29;6.32;;;2.85;;
3667;SDS011;24099;47.102;15.440;2023-11-19T07:38:58;4.47;;;3.00;;
3667;SDS011;24099;47.102;15.440;2023-11-19T07:41:29;8.18;;;2.63;;
3667;SDS011;24099;47.102;15.440;2023-11-19T07:43:57;3.53;;;2.53;;
3667;SDS011;24099;47.102;15.440;2023-11-19T07:46:25;4.00;;;2.63;;
3667;SDS011;24099;47.102;15.440;2023-11-19T07:48:53;4.43;;;2.30;;
3667;SDS011;24099;47.102;15.440;2023-11-19T07:51:21;7.43;;;2.70;;
3667;SDS011;24099;47.102;15.440;2023-11-19T07:53:49;3.22;;;2.33;;
3667;SDS011;24099;47.102;15.440;2023-11-19T07:56:18;4.78;;;2.88;;
3667;SDS011;24099;47.102;15.440;2023-11-19T07:58:46;6.70;;;3.30;;
3667;SDS011;24099;47.102;15.440;2023-11-19T08:01:15;4.00;;;2.60;;
3667;SDS011;24099;47.102;15.440;2023-11-19T08:03:43;5.32;;;2.75;;
3667;SDS011;24099;47.102;15.440;2023-11-19T08:06:10;3.90;;;2.67;;
3667;SDS011;24099;47.102;15.440;2023-11-19T08:08:38;6.05;;;3.00;;
3667;SDS011;24099;47.102;15.440;2023-11-19T08:11:06;4.57;;;2.78;;
3667;SDS011;24099;47.102;15.440;2023-11-19T08:13:35;5.43;;;2.70;;
3667;SDS011;24099;47.102;15.440;2023-11-19T08:16:04;4.82;;;2.70;;
3667;SDS011;24099;47.102;15.440;2023-11-19T08:18:32;4.65;;;2.80;;
3667;SDS011;24099;47.102;15.440;2023-11-19T08:21:01;6.75;;;3.03;;
3667;SDS011;24099;47.102;15.440;2023-11-19T08:23:30;7.28;;;2.72;;
3667;SDS011;24099;47.102;15.440;2023-11-19T08:25:59;3.75;;;2.30;;
3667;SDS011;24099;47.102;15.440;2023-11-19T08:28:27;4.82;;;2.90;;
3667;SDS011;24099;47.102;15.440;2023-11-19T08:30:56;5.13;;;2.75;;
3667;SDS011;24099;47.102;15.440;2023-11-19T08:33:24;5.30;;;2.70;;
3667;SDS011;24099;47.102;15.440;2023-11-19T08:35:53;5.85;;;2.28;;
3667;SDS011;24099;47.102;15.440;2023-11-19T08:38:23;5.00;;;2.88;;
3667;SDS011;24099;47.102;15.440;2023-11-19T08:40:51;4.97;;;2.65;;
3667;SDS011;24099;47.102;15.440;2023-11-19T08:43:18;3.95;;;2.45;;
3667;SDS011;24099;47.102;15.440;2023-11-19T08:45:46;7.78;;;3.65;;
3667;SDS011;24099;47.102;15.440;2023-11-19T08:48:14;4.65;;;3.03;;
3667;SDS011;24099;47.102;15.440;2023-11-19T08:50:43;6.18;;;2.80;;
3667;SDS011;24099;47.102;15.440;2023-11-19T08:53:10;4.88;;;2.72;;
3667;SDS011;24099;47.102;15.440;2023-11-19T08:55:37;6.25;;;2.40;;
3667;SDS011;24099;47.102;15.440;2023-11-19T08:58:05;3.63;;;2.25;;
3667;SDS011;24099;47.102;15.440;2023-11-19T09:00:33;6.78;;;1.85;;
3667;SDS011;24099;47.102;15.440;2023-11-19T09:03:00;2.60;;;1.90;;
3667;SDS011;24099;47.102;15.440;2023-11-19T09:05:29;2.83;;;2.10;;
3667;SDS011;24099;47.102;15.440;2023-11-19T09:07:57;3.28;;;1.98;;
3667;SDS011;24099;47.102;15.440;2023-11-19T09:10:24;5.32;;;3.20;;
3667;SDS011;24099;47.102;15.440;2023-11-19T09:12:54;4.88;;;2.60;;
3667;SDS011;24099;47.102;15.440;2023-11-19T09:15:22;5.05;;;2.33;;
3667;SDS011;24099;47.102;15.440;2023-11-19T09:17:50;2.85;;;1.75;;
3667;SDS011;24099;47.102;15.440;2023-11-19T09:20:18;4.45;;;2.35;;
3667;SDS011;24099;47.102;15.440;2023-11-19T09:22:47;3.83;;;2.60;;
3667;SDS011;24099;47.102;15.440;2023-11-19T09:25:14;3.47;;;1.90;;
3667;SDS011;24099;47.102;15.440;2023-11-19T09:27:42;4.30;;;2.33;;
3667;SDS011;24099;47.102;15.440;2023-11-19T09:30:11;3.17;;;2.28;;
3667;SDS011;24099;47.102;15.440;2023-11-19T09:32:39;3.30;;;1.90;;
3667;SDS011;24099;47.102;15.440;2023-11-19T09:35:07;4.40;;;2.42;;
3667;SDS011;24099;47.102;15.440;2023-11-19T09:37:38;2.15;;;1.70;;
3667;SDS011;24099;47.102;15.440;2023-11-19T09:40:08;2.22;;;1.70;;
3667;SDS011;24099;47.102;15.440;2023-11-19T09:42:38;5.38;;;1.90;;
3667;SDS011;24099;47.102;15.440;2023-11-19T09:45:12;4.10;;;2.13;;
3667;SDS011;24099;47.102;15.440;2023-11-19T09:47:42;5.45;;;2.50;;
3667;SDS011;24099;47.102;15.440;2023-11-19T09:50:14;6.45;;;2.17;;
3667;SDS011;24099;47.102;15.440;2023-11-19T09:52:44;3.72;;;2.25;;
3667;SDS011;24099;47.102;15.440;2023-11-19T09:55:13;3.88;;;2.03;;
3667;SDS011;24099;47.102;15.440;2023-11-19T09:57:41;4.63;;;2.40;;
3667;SDS011;24099;47.102;15.440;2023-11-19T10:00:10;4.75;;;2.30;;
3667;SDS011;24099;47.102;15.440;2023-11-19T10:02:40;3.78;;;2.30;;
3667;SDS011;24099;47.102;15.440;2023-11-19T10:05:11;6.10;;;2.47;;
3667;SDS011;24099;47.102;15.440;2023-11-19T10:07:40;3.55;;;2.47;;
3667;SDS011;24099;47.102;15.440;2023-11-19T10:10:08;3.92;;;2.22;;
3667;SDS011;24099;47.102;15.440;2023-11-19T10:12:41;6.53;;;2.97;;
3667;SDS011;24099;47.102;15.440;2023-11-19T10:15:09;4.72;;;2.55;;
3667;SDS011;24099;47.102;15.440;2023-11-19T10:17:46;4.32;;;2.53;;
3667;SDS011;24099;47.102;15.440;2023-11-19T10:20:14;9.05;;;2.88;;
3667;SDS011;24099;47.102;15.440;2023-11-19T10:22:42;8.20;;;2.80;;
3667;SDS011;24099;47.102;15.440;2023-11-19T10:25:21;6.80;;;2.67;;
3667;SDS011;24099;47.102;15.440;2023-11-19T10:27:51;3.55;;;2.67;;
3667;SDS011;24099;47.102;15.440;2023-11-19T10:30:20;4.50;;;2.47;;
3667;SDS011;24099;47.102;15.440;2023-11-19T10:33:02;3.95;;;2.58;;
3667;SDS011;24099;47.102;15.440;2023-11-19T10:35:31;3.35;;;2.10;;
3667;SDS011;24099;47.102;15.440;2023-11-19T10:38:13;3.80;;;2.20;;
3667;SDS011;24099;47.102;15.440;2023-11-19T10:40:41;3.95;;;2.35;;
3667;SDS011;24099;47.102;15.440;2023-11-19T10:43:11;4.40;;;2.88;;
3667;SDS011;24099;47.102;15.440;2023-11-19T10:45:39;4.72;;;2.38;;
3667;SDS011;24099;47.102;15.440;2023-11-19T10:48:07;2.97;;;2.10;;
3667;SDS011;24099;47.102;15.440;2023-11-19T10:50:35;5.35;;;2.45;;
3667;SDS011;24099;47.102;15.440;2023-11-19T10:53:04;4.70;;;2.58;;
3667;SDS011;24099;47.102;15.440;2023-11-19T10:55:34;3.92;;;2.70;;
3667;SDS011;24099;47.102;15.440;2023-11-19T10:58:04;3.00;;;2.35;;
3667;SDS011;24099;47.102;15.440;2023-11-19T11:00:37;5.05;;;3.03;;
3667;SDS011;24099;47.102;15.440;2023-11-19T11:03:10;4.25;;;2.25;;
3667;SDS011;24099;47.102;15.440;2023-11-19T11:05:45;3.37;;;2.43;;
3667;SDS011;24099;47.102;15.440;2023-11-19T11:08:14;3.47;;;2.47;;
3667;SDS011;24099;47.102;15.440;2023-11-19T11:10:43;3.22;;;2.47;;
3667;SDS011;24099;47.102;15.440;2023-11-19T11:13:13;6.47;;;2.83;;
3667;SDS011;24099;47.102;15.440;2023-11-19T11:15:43;7.47;;;2.53;;
3667;SDS011;24099;47.102;15.440;2023-11-19T11:18:12;2.90;;;2.20;;
3667;SDS011;24099;47.102;15.440;2023-11-19T11:20:40;3.72;;;2.45;;
3667;SDS011;24099;47.102;15.440;2023-11-19T11:23:18;4.25;;;2.85;;
3667;SDS011;24099;47.102;15.440;2023-11-19T11:26:09;4.40;;;2.35;;
3667;SDS011;24099;47.102;15.440;2023-11-19T11:28:58;3.10;;;2.15;;
3667;SDS011;24099;47.102;15.440;2023-11-19T11:31:35;3.58;;;1.90;;
3667;SDS011;24099;47.102;15.440;2023-11-19T11:34:16;3.75;;;1.80;;
3667;SDS011;24099;47.102;15.440;2023-11-19T11:36:59;3.22;;;1.80;;
3667;SDS011;24099;47.102;15.440;2023-11-19T11:39:36;4.25;;;2.10;;
3667;SDS011;24099;47.102;15.440;2023-11-19T11:45:02;3.87;;;2.00;;
3667;SDS011;24099;47.102;15.440;2023-11-19T11:50:35;3.35;;;2.22;;
3667;SDS011;24099;47.102;15.440;2023-11-19T11:53:15;2.75;;;1.92;;
3667;SDS011;24099;47.102;15.440;2023-11-19T11:55:54;3.47;;;2.15;;
3667;SDS011;24099;47.102;15.440;2023-11-19T11:58:29;4.63;;;2.05;;
3667;SDS011;24099;47.102;15.440;2023-11-19T12:01:03;2.00;;;1.80;;
3667;SDS011;24099;47.102;15.440;2023-11-19T12:03:34;5.65;;;2.03;;
3667;SDS011;24099;47.102;15.440;2023-11-19T12:06:05;2.92;;;1.75;;
3667;SDS011;24099;47.102;15.440;2023-11-19T12:08:34;2.80;;;1.88;;
3667;SDS011;24099;47.102;15.440;2023-11-19T12:11:01;4.75;;;1.90;;
3667;SDS011;24099;47.102;15.440;2023-11-19T12:13:42;2.65;;;1.77;;
3667;SDS011;24099;47.102;15.440;2023-11-19T12:16:19;3.55;;;2.00;;
3667;SDS011;24099;47.102;15.440;2023-11-19T12:18:46;3.72;;;1.98;;
3667;SDS011;24099;47.102;15.440;2023-11-19T12:21:28;4.15;;;2.08;;
3667;SDS011;24099;47.102;15.440;2023-11-19T12:23:57;3.30;;;2.22;;
3667;SDS011;24099;47.102;15.440;2023-11-19T12:26:33;3.97;;;2.22;;
3667;SDS011;24099;47.102;15.440;2023-11-19T12:29:01;3.88;;;2.00;;
3667;SDS011;24099;47.102;15.440;2023-11-19T12:31:31;2.92;;;2.08;;
3667;SDS011;24099;47.102;15.440;2023-11-19T12:34:05;2.47;;;1.88;;
3667;SDS011;24099;47.102;15.440;2023-11-19T12:36:39;3.20;;;2.08;;
3667;SDS011;24099;47.102;15.440;2023-11-19T12:39:08;8.20;;;2.50;;
3667;SDS011;24099;47.102;15.440;2023-11-19T12:41:50;2.67;;;2.00;;
3667;SDS011;24099;47.102;15.440;2023-11-19T12:44:19;6.70;;;2.30;;
3667;SDS011;24099;47.102;15.440;2023-11-19T12:46:58;4.30;;;2.38;;
3667;SDS011;24099;47.102;15.440;2023-11-19T12:49:27;4.93;;;2.33;;
3667;SDS011;24099;47.102;15.440;2023-11-19T12:51:56;4.43;;;2.05;;
3667;SDS011;24099;47.102;15.440;2023-11-19T12:54:33;3.80;;;2.42;;
3667;SDS011;24099;47.102;15.440;2023-11-19T12:57:01;4.78;;;2.28;;
3667;SDS011;24099;47.102;15.440;2023-11-19T12:59:30;4.32;;;2.20;;
3667;SDS011;24099;47.102;15.440;2023-11-19T13:01:57;3.50;;;2.53;;
3667;SDS011;24099;47.102;15.440;2023-11-19T13:04:27;5.78;;;2.40;;
3667;SDS011;24099;47.102;15.440;2023-11-19T13:06:58;4.93;;;2.97;;
3667;SDS011;24099;47.102;15.440;2023-11-19T13:09:26;3.35;;;2.35;;
3667;SDS011;24099;47.102;15.440;2023-11-19T13:11:55;3.95;;;2.30;;
3667;SDS011;24099;47.102;15.440;2023-11-19T13:14:23;6.50;;;2.40;;
3667;SDS011;24099;47.102;15.440;2023-11-19T13:17:02;6.85;;;2.53;;
3667;SDS011;24099;47.102;15.440;2023-11-19T13:19:30;5.35;;;2.17;;
3667;SDS011;24099;47.102;15.440;2023-11-19T13:21:59;3.88;;;2.03;;
3667;SDS011;24099;47.102;15.440;2023-11-19T13:24:27;4.40;;;2.42;;
3667;SDS011;24099;47.102;15.440;2023-11-19T13:26:54;5.05;;;3.05;;
3667;SDS011;24099;47.102;15.440;2023-11-19T13:29:22;4.25;;;2.55;;
3667;SDS011;24099;47.102;15.440;2023-11-19T13:31:49;5.20;;;2.35;;
3667;SDS011;24099;47.102;15.440;2023-11-19T13:34:17;5.30;;;2.65;;
3667;SDS011;24099;47.102;15.440;2023-11-19T13:36:45;7.20;;;2.53;;
3667;SDS011;24099;47.102;15.440;2023-11-19T13:39:14;3.25;;;2.28;;
3667;SDS011;24099;47.102;15.440;2023-11-19T13:41:48;3.65;;;2.17;;
3667;SDS011;24099;47.102;15.440;2023-11-19T13:44:15;6.45;;;2.53;;
3667;SDS011;24099;47.102;15.440;2023-11-19T13:46:44;5.53;;;2.40;;
3667;SDS011;24099;47.102;15.440;2023-11-19T13:49:12;5.00;;;2.17;;
3667;SDS011;24099;47.102;15.440;2023-11-19T13:51:40;3.60;;;2.35;;
3667;SDS011;24099;47.102;15.440;2023-11-19T13:54:08;3.65;;;1.92;;
3667;SDS011;24099;47.102;15.440;2023-11-19T13:56:37;5.78;;;2.03;;
3667;SDS011;24099;47.102;15.440;2023-11-19T13:59:04;4.00;;;2.28;;
3667;SDS011;24099;47.102;15.440;2023-11-19T14:01:33;3.88;;;1.98;;
3667;SDS011;24099;47.102;15.440;2023-11-19T14:04:01;3.83;;;2.20;;
3667;SDS011;24099;47.102;15.440;2023-11-19T14:06:29;2.72;;;1.90;;
3667;SDS011;24099;47.102;15.440;2023-11-19T14:08:56;3.70;;;1.95;;
3667;SDS011;24099;47.102;15.440;2023-11-19T14:11:24;2.90;;;1.60;;
3667;SDS011;24099;47.102;15.440;2023-11-19T14:13:53;4.45;;;1.88;;
3667;SDS011;24099;47.102;15.440;2023-11-19T14:16:20;2.33;;;1.67;;
3667;SDS011;24099;47.102;15.440;2023-11-19T14:18:48;1.80;;;1.30;;
3667;SDS011;24099;47.102;15.440;2023-11-19T14:21:15;2.90;;;1.52;;
3667;SDS011;24099;47.102;15.440;2023-11-19T14:23:43;1.70;;;1.20;;
3667;SDS011;24099;47.102;15.440;2023-11-19T14:26:10;5.53;;;1.77;;
3667;SDS011;24099;47.102;15.440;2023-11-19T14:28:38;7.15;;;2.08;;
3667;SDS011;24099;47.102;15.440;2023-11-19T14:31:07;3.25;;;1.60;;
3667;SDS011;24099;47.102;15.440;2023-11-19T14:33:35;2.58;;;1.70;;
3667;SDS011;24099;47.102;15.440;2023-11-19T14:36:03;3.03;;;1.90;;
3667;SDS011;24099;47.102;15.440;2023-11-19T14:38:32;2.42;;;1.30;;
3667;SDS011;24099;47.102;15.440;2023-11-19T14:41:00;2.72;;;1.58;;
3667;SDS011;24099;47.102;15.440;2023-11-19T14:43:27;7.68;;;1.65;;
3667;SDS011;24099;47.102;15.440;2023-11-19T14:45:55;2.92;;;1.50;;
3667;SDS011;24099;47.102;15.440;2023-11-19T14:48:24;3.17;;;1.63;;
3667;SDS011;24099;47.102;15.440;2023-11-19T14:50:51;3.40;;;1.60;;
3667;SDS011;24099;47.102;15.440;2023-11-19T14:53:19;1.95;;;1.52;;
3667;SDS011;24099;47.102;15.440;2023-11-19T14:55:47;2.80;;;1.80;;
3667;SDS011;24099;47.102;15.440;2023-11-19T14:58:15;2.45;;;1.45;;
3667;SDS011;24099;47.102;15.440;2023-11-19T15:00:43;5.65;;;1.60;;
3667;SDS011;24099;47.102;15.440;2023-11-19T15:03:11;2.33;;;1.30;;
3667;SDS011;24099;47.102;15.440;2023-11-19T15:05:42;2.15;;;1.40;;
3667;SDS011;24099;47.102;15.440;2023-11-19T15:08:11;4.45;;;1.60;;
3667;SDS011;24099;47.102;15.440;2023-11-19T15:10:39;4.38;;;1.83;;
3667;SDS011;24099;47.102;15.440;2023-11-19T15:13:07;5.47;;;1.80;;
3667;SDS011;24099;47.102;15.440;2023-11-19T15:15:35;2.28;;;1.50;;